Time;durP1;ratioP1;P1;durP2;ratioP2;P2;SDS_P1;SDS_P2;PMS_P1;PMS_P2;Temp;Humidity;BMP_temperature;BMP_pressure;BME280_temperature;BME280_humidity;BME280_pressure;Samples;Min_cycle;Max_cycle;Signal;HPM_P1;HPM_P2
2021/08/29 00:02:21;;;;;;;20.33;8.47;;;;;;;8.97;100.00;93950.00;5055005;28;20230;-81
2021/08/29 00:04:47;;;;;;;22.23;9.10;;;;;;;8.98;100.00;93951.63;5055249;28;20558;-80
2021/08/29 00:07:14;;;;;;;20.77;9.37;;;;;;;8.98;100.00;93949.00;5055147;28;20614;-79
2021/08/29 00:09:40;;;;;;;16.70;7.97;;;;;;;8.86;100.00;93942.69;5054973;28;20204;-80
2021/08/29 00:12:09;;;;;;;13.10;6.40;;;;;;;8.80;100.00;93946.81;5054871;28;20647;-80
2021/08/29 00:14:35;;;;;;;16.30;7.40;;;;;;;8.79;100.00;93957.41;5054836;28;20229;-79
2021/08/29 00:17:02;;;;;;;13.43;7.13;;;;;;;8.78;100.00;93938.41;5054852;28;20204;-78
2021/08/29 00:19:28;;;;;;;19.07;8.83;;;;;;;8.80;100.00;93936.41;5054864;28;20563;-79
2021/08/29 00:21:55;;;;;;;23.27;9.87;;;;;;;8.81;100.00;93945.84;5054893;28;20210;-79
2021/08/29 00:24:21;;;;;;;23.33;10.47;;;;;;;8.86;100.00;93943.50;5054731;28;20207;-79
2021/08/29 00:26:48;;;;;;;18.00;9.03;;;;;;;8.81;100.00;93935.44;5054635;28;20231;-78
2021/08/29 00:29:16;;;;;;;27.40;11.50;;;;;;;8.89;100.00;93937.09;5054534;28;20210;-79
2021/08/29 00:31:43;;;;;;;26.20;10.20;;;;;;;8.89;100.00;93940.53;5054486;28;20200;-78
2021/08/29 00:34:11;;;;;;;23.03;9.80;;;;;;;8.83;100.00;93943.84;5054761;28;20211;-79
2021/08/29 00:36:37;;;;;;;13.93;7.53;;;;;;;8.75;100.00;93945.78;5054300;28;20593;-78
2021/08/29 00:39:04;;;;;;;21.77;9.60;;;;;;;8.74;100.00;93937.16;5054355;28;20670;-81
2021/08/29 00:41:31;;;;;;;29.93;11.23;;;;;;;8.79;100.00;93937.41;5054442;28;20199;-79
2021/08/29 00:43:58;;;;;;;25.13;10.23;;;;;;;8.79;100.00;93941.81;5054249;28;20203;-80
2021/08/29 00:46:26;;;;;;;27.47;10.57;;;;;;;8.85;100.00;93947.06;5053978;28;20705;-79
2021/08/29 00:48:53;;;;;;;26.03;10.53;;;;;;;8.82;100.00;93944.03;5054520;28;20199;-79
2021/08/29 00:51:19;;;;;;;27.50;11.00;;;;;;;8.75;100.00;93941.38;5054360;28;20204;-79
2021/08/29 00:53:48;;;;;;;19.67;9.30;;;;;;;8.66;100.00;93943.28;5054149;28;20646;-81
2021/08/29 00:56:15;;;;;;;23.33;8.87;;;;;;;8.66;100.00;93937.25;5054179;28;20222;-80
2021/08/29 00:58:43;;;;;;;18.40;8.20;;;;;;;8.55;100.00;93940.38;5054002;28;20230;-81
2021/08/29 01:01:09;;;;;;;16.97;8.90;;;;;;;8.45;100.00;93938.84;5053481;28;20227;-80
2021/08/29 01:03:39;;;;;;;17.80;8.27;;;;;;;8.39;100.00;93933.53;5054140;28;20203;-81
2021/08/29 01:06:14;;;;;;;18.67;8.33;;;;;;;8.39;100.00;93933.53;5053751;28;20586;-80
2021/08/29 01:08:43;;;;;;;22.00;10.00;;;;;;;8.42;100.00;93935.78;5053953;28;20689;-80
2021/08/29 01:11:13;;;;;;;22.10;10.30;;;;;;;8.42;100.00;93943.59;5053716;28;20202;-81
2021/08/29 01:13:45;;;;;;;20.17;9.60;;;;;;;8.44;100.00;93946.84;5053482;28;20196;-80
2021/08/29 01:16:14;;;;;;;19.67;9.57;;;;;;;8.46;100.00;93947.44;5053871;28;20231;-80
2021/08/29 01:18:45;;;;;;;21.27;10.00;;;;;;;8.51;100.00;93938.13;5053698;28;20294;-79
2021/08/29 01:21:15;;;;;;;25.17;9.60;;;;;;;8.55;100.00;93935.97;5053660;28;20199;-80
2021/08/29 01:23:44;;;;;;;21.23;9.00;;;;;;;8.54;100.00;93933.53;5053500;28;20207;-80
2021/08/29 01:26:17;;;;;;;20.90;9.57;;;;;;;8.60;100.00;93938.03;5053358;28;20235;-80
2021/08/29 01:29:01;;;;;;;19.33;8.90;;;;;;;8.60;100.00;93938.03;5053648;28;20203;-80
2021/08/29 01:31:30;;;;;;;22.13;9.93;;;;;;;8.65;100.00;93946.06;5051756;28;20278;-80
2021/08/29 01:33:59;;;;;;;27.23;10.37;;;;;;;8.67;100.00;93938.88;5053287;28;20200;-81
2021/08/29 01:36:26;;;;;;;23.90;10.90;;;;;;;8.71;100.00;93937.53;5052703;28;20207;-81
2021/08/29 01:38:53;;;;;;;21.70;9.97;;;;;;;8.72;100.00;93935.72;5053609;28;20199;-81
2021/08/29 01:41:21;;;;;;;23.57;9.57;;;;;;;8.73;100.00;93927.75;5053356;28;20203;-79
2021/08/29 01:43:48;;;;;;;16.83;8.93;;;;;;;8.74;100.00;93936.34;5052690;28;20200;-80
2021/08/29 01:46:18;;;;;;;25.43;11.20;;;;;;;8.81;100.00;93932.00;5052952;28;20690;-80
2021/08/29 01:48:45;;;;;;;24.27;10.23;;;;;;;8.84;100.00;93923.81;5053027;28;20668;-80
2021/08/29 01:51:12;;;;;;;22.07;10.77;;;;;;;8.82;100.00;93921.41;5053634;28;20207;-81
2021/08/29 01:53:40;;;;;;;22.73;10.20;;;;;;;8.81;100.00;93927.63;5054272;28;20196;-81
2021/08/29 01:56:07;;;;;;;22.67;9.27;;;;;;;8.82;100.00;93929.22;5055193;28;20211;-79
2021/08/29 01:58:34;;;;;;;23.33;9.73;;;;;;;8.83;100.00;93927.44;5054150;28;20202;-80
2021/08/29 02:01:06;;;;;;;18.27;7.93;;;;;;;8.83;100.00;93922.22;5053395;28;20204;-80
2021/08/29 02:03:34;;;;;;;17.40;8.43;;;;;;;8.85;100.00;93923.66;5053004;28;20211;-80
2021/08/29 02:06:07;;;;;;;20.80;9.50;;;;;;;8.88;100.00;93915.47;5053043;28;20203;-81
2021/08/29 02:08:37;;;;;;;18.40;8.57;;;;;;;8.88;100.00;93920.69;5052989;28;20206;-81
2021/08/29 02:11:06;;;;;;;24.30;9.73;;;;;;;8.91;100.00;93909.09;5052928;28;20253;-80
2021/08/29 02:13:36;;;;;;;20.30;9.57;;;;;;;8.91;100.00;93908.28;5052657;28;20200;-80
2021/08/29 02:16:06;;;;;;;20.43;9.27;;;;;;;8.93;100.00;93903.69;5052950;28;20211;-79
2021/08/29 02:18:36;;;;;;;23.10;10.23;;;;;;;8.89;100.00;93896.25;5053072;28;20230;-80
2021/08/29 02:21:03;;;;;;;18.37;9.23;;;;;;;8.84;100.00;93898.63;5052806;28;20278;-80
2021/08/29 02:23:30;;;;;;;20.27;9.37;;;;;;;8.83;100.00;93897.00;5052618;28;20195;-80
2021/08/29 02:25:57;;;;;;;16.50;8.10;;;;;;;8.79;100.00;93903.59;5052540;28;20204;-81
2021/08/29 02:28:25;;;;;;;19.33;8.43;;;;;;;8.76;100.00;93897.91;5052888;28;20227;-80
2021/08/29 02:30:52;;;;;;;20.43;8.57;;;;;;;8.74;100.00;93898.09;5052569;28;20589;-80
2021/08/29 02:33:19;;;;;;;18.37;8.23;;;;;;;8.77;100.00;93897.72;5052605;28;20555;-80
2021/08/29 02:35:48;;;;;;;23.70;10.10;;;;;;;8.85;100.00;93889.00;5052582;28;20654;-81
2021/08/29 02:38:15;;;;;;;24.43;9.37;;;;;;;8.85;100.00;93884.59;5052581;28;20647;-80
2021/08/29 02:40:43;;;;;;;17.33;8.20;;;;;;;8.86;100.00;93883.63;5052375;28;20214;-81
2021/08/29 02:43:10;;;;;;;21.07;8.77;;;;;;;8.84;100.00;93880.41;5052785;28;20203;-79
2021/08/29 02:45:40;;;;;;;17.37;7.87;;;;;;;8.87;100.00;93887.00;5052444;28;20548;-81
2021/08/29 02:48:07;;;;;;;15.63;8.07;;;;;;;8.81;100.00;93888.56;5052560;28;20234;-80
2021/08/29 02:50:34;;;;;;;13.63;7.30;;;;;;;8.81;100.00;93885.97;5052573;28;20210;-80
2021/08/29 02:53:03;;;;;;;20.30;8.40;;;;;;;8.82;100.00;93890.16;5052409;28;20195;-81
2021/08/29 02:55:31;;;;;;;21.87;9.07;;;;;;;8.87;100.00;93880.00;5052616;28;20212;-81
2021/08/29 02:58:02;;;;;;;21.33;9.10;;;;;;;8.91;100.00;93884.84;5052530;28;20226;-81
2021/08/29 03:00:29;;;;;;;23.00;9.67;;;;;;;8.89;100.00;93875.44;5052567;28;20558;-80
2021/08/29 03:02:56;;;;;;;21.27;9.30;;;;;;;8.93;100.00;93878.47;5052392;28;20200;-81
2021/08/29 03:05:25;;;;;;;21.20;9.23;;;;;;;8.93;100.00;93877.66;5052383;28;20211;-80
2021/08/29 03:07:52;;;;;;;20.10;9.30;;;;;;;8.93;100.00;93875.84;5051743;28;20231;-81
2021/08/29 03:10:20;;;;;;;16.33;7.20;;;;;;;8.95;100.00;93879.06;5052418;28;20203;-80
2021/08/29 03:12:47;;;;;;;19.53;7.70;;;;;;;8.94;100.00;93869.63;5052297;28;20676;-81
2021/08/29 03:15:14;;;;;;;15.50;7.83;;;;;;;8.97;100.00;93877.06;5052347;28;20200;-80
2021/08/29 03:17:41;;;;;;;21.10;7.80;;;;;;;8.95;100.00;93873.06;5052261;28;20203;-81
2021/08/29 03:20:09;;;;;;;17.80;8.33;;;;;;;8.98;100.00;93870.09;5052186;28;20200;-80
2021/08/29 03:22:37;;;;;;;16.13;7.53;;;;;;;8.98;100.00;93868.28;5052083;28;20207;-80
2021/08/29 03:25:05;;;;;;;19.47;8.60;;;;;;;8.99;100.00;93882.94;5053938;28;20200;-80
2021/08/29 03:27:33;;;;;;;17.40;7.70;;;;;;;9.00;100.00;93870.69;5055854;28;20231;-80
2021/08/29 03:30:00;;;;;;;22.47;9.60;;;;;;;9.05;100.00;93868.34;5055652;28;20667;-81
2021/08/29 03:32:26;;;;;;;19.30;7.67;;;;;;;9.08;100.00;93868.75;5055699;28;20290;-81
2021/08/29 03:35:02;;;;;;;34.57;10.07;;;;;;;9.14;100.00;93875.00;5055644;28;20207;-80
2021/08/29 03:37:29;;;;;;;26.33;10.43;;;;;;;9.15;100.00;93868.81;5055723;28;20195;-79
2021/08/29 03:39:57;;;;;;;21.37;9.53;;;;;;;9.19;100.00;93866.63;5055779;28;20579;-81
2021/08/29 03:42:24;;;;;;;28.33;10.17;;;;;;;9.19;100.00;93870.06;5055678;28;20200;-79
2021/08/29 03:44:53;;;;;;;23.73;10.00;;;;;;;9.23;100.00;93867.88;5055499;28;20202;-81
2021/08/29 03:47:20;;;;;;;21.90;8.93;;;;;;;9.26;100.00;93867.50;5055166;28;20334;-80
2021/08/29 03:49:47;;;;;;;25.10;10.27;;;;;;;9.33;100.00;93872.75;5055299;28;20207;-80
2021/08/29 03:52:18;;;;;;;23.43;10.10;;;;;;;9.40;100.00;93871.78;5055447;28;20204;-80
2021/08/29 03:54:45;;;;;;;24.67;11.40;;;;;;;9.54;100.00;93872.69;5055316;28;20294;-80
2021/08/29 03:57:13;;;;;;;26.97;10.27;;;;;;;9.53;100.00;93876.28;5055358;28;20218;-80
2021/08/29 03:59:40;;;;;;;33.03;11.10;;;;;;;9.49;100.00;93875.03;5055212;28;20586;-80
2021/08/29 04:02:09;;;;;;;22.50;9.90;;;;;;;9.48;100.00;93875.25;5055290;28;20728;-80
2021/08/29 04:04:37;;;;;;;32.92;14.30;;;;;;;9.47;100.00;93874.44;5054135;28;20506;-80
2021/08/29 04:07:05;;;;;;;31.83;11.07;;;;;;;9.50;100.00;93865.44;5055076;28;20227;-80
2021/08/29 04:09:33;;;;;;;21.83;9.47;;;;;;;9.51;100.00;93873.06;5055075;28;20203;-81
2021/08/29 04:12:00;;;;;;;23.70;9.17;;;;;;;9.53;100.00;93865.88;5054992;28;20207;-79
2021/08/29 04:14:29;;;;;;;28.20;9.90;;;;;;;9.53;100.00;93860.66;5054768;28;20195;-81
2021/08/29 04:16:57;;;;;;;23.17;9.33;;;;;;;9.55;100.00;93856.03;5055117;28;20213;-79
2021/08/29 04:19:27;;;;;;;19.97;8.90;;;;;;;9.59;100.00;93862.50;5054916;28;20195;-79
2021/08/29 04:21:54;;;;;;;31.63;10.80;;;;;;;9.59;100.00;93864.28;5054958;28;20214;-79
2021/08/29 04:24:21;;;;;;;21.00;8.57;;;;;;;9.62;100.00;93859.47;5054776;28;20200;-79
2021/08/29 04:26:48;;;;;;;24.17;10.20;;;;;;;9.66;100.00;93856.50;5054699;28;20233;-80
2021/08/29 04:29:15;;;;;;;21.83;8.83;;;;;;;9.67;100.00;93860.72;5054905;28;20214;-80
2021/08/29 04:31:45;;;;;;;22.23;9.10;;;;;;;9.66;100.00;93859.09;5054734;28;20214;-79
2021/08/29 04:34:11;;;;;;;27.73;10.13;;;;;;;9.63;100.00;93845.47;5054678;28;20202;-80
2021/08/29 04:36:40;;;;;;;23.17;9.53;;;;;;;9.68;100.00;93846.69;5053538;28;20274;-80
2021/08/29 04:39:08;;;;;;;26.77;11.80;;;;;;;9.71;100.00;93846.28;5053926;28;20455;-80
2021/08/29 04:41:35;;;;;;;28.43;10.80;;;;;;;9.73;100.00;93846.94;5054368;28;20207;-79
2021/08/29 04:44:02;;;;;;;27.50;11.77;;;;;;;9.76;100.00;93841.31;5054724;28;20200;-81
2021/08/29 04:46:29;;;;;;;26.83;9.97;;;;;;;9.78;100.00;93845.34;5054443;28;20228;-79
2021/08/29 04:48:55;;;;;;;26.40;9.67;;;;;;;9.66;100.00;93848.69;5054279;28;20238;-80
2021/08/29 04:51:22;;;;;;;21.60;8.60;;;;;;;9.66;100.00;93848.69;5054287;28;20322;-81
2021/08/29 04:53:50;;;;;;;25.77;10.57;;;;;;;9.53;100.00;93855.44;5054162;28;20211;-80
2021/08/29 04:56:16;;;;;;;25.57;10.00;;;;;;;9.58;100.00;93847.06;5054363;28;20204;-80
2021/08/29 04:58:43;;;;;;;21.47;9.70;;;;;;;9.59;100.00;93852.06;5054294;28;20206;-80
2021/08/29 05:01:09;;;;;;;21.53;9.80;;;;;;;9.63;100.00;93853.28;5053430;28;20670;-80
2021/08/29 05:03:36;;;;;;;26.10;10.07;;;;;;;9.67;100.00;93847.69;5054013;28;20674;-81
2021/08/29 05:06:03;;;;;;;23.53;10.17;;;;;;;9.67;100.00;93852.91;5053937;28;20211;-81
2021/08/29 05:08:30;;;;;;;24.87;10.10;;;;;;;9.72;100.00;93834.88;5053793;28;20231;-80
2021/08/29 05:10:58;;;;;;;27.17;11.23;;;;;;;9.80;100.00;93840.72;5054081;28;20214;-81
2021/08/29 05:13:24;;;;;;;28.03;11.17;;;;;;;9.80;100.00;93845.16;5053988;28;20210;-80
2021/08/29 05:15:51;;;;;;;26.33;10.27;;;;;;;9.81;100.00;93851.97;5053869;28;20571;-81
2021/08/29 05:18:17;;;;;;;25.47;10.47;;;;;;;9.84;100.00;93845.56;5053888;28;20214;-80
2021/08/29 05:20:44;;;;;;;27.20;10.53;;;;;;;9.82;100.00;93837.94;5053746;28;20246;-80
2021/08/29 05:23:10;;;;;;;33.13;11.57;;;;;;;9.85;100.00;93836.75;5053761;28;20203;-80
2021/08/29 05:25:37;;;;;;;27.43;11.10;;;;;;;9.93;100.00;93839.19;5053557;28;20203;-80
2021/08/29 05:28:05;;;;;;;26.13;10.87;;;;;;;9.98;100.00;93835.00;5053670;28;20231;-80
2021/08/29 05:30:32;;;;;;;27.10;12.07;;;;;;;10.06;100.00;93838.41;5053367;28;20210;-80
2021/08/29 05:32:58;;;;;;;33.40;11.93;;;;;;;10.01;100.00;93836.41;5053542;28;20209;-81
2021/08/29 05:35:25;;;;;;;31.93;11.83;;;;;;;10.12;100.00;93833.22;5053427;28;20206;-80
2021/08/29 05:37:51;;;;;;;25.97;10.70;;;;;;;10.11;100.00;93836.06;5053601;28;20651;-80
2021/08/29 05:40:18;;;;;;;24.03;10.30;;;;;;;10.13;100.00;93839.25;5054538;28;20196;-79
2021/08/29 05:42:44;;;;;;;30.23;11.23;;;;;;;10.11;100.00;93829.03;5055084;28;20204;-79
2021/08/29 05:45:12;;;;;;;20.47;9.47;;;;;;;10.13;100.00;93828.81;5054176;28;20203;-79
2021/08/29 05:47:39;;;;;;;22.87;9.10;;;;;;;10.11;100.00;93830.84;5052798;28;20235;-79
2021/08/29 05:50:06;;;;;;;19.77;8.53;;;;;;;10.11;100.00;93836.84;5053243;28;20207;-79
2021/08/29 05:52:32;;;;;;;17.43;7.77;;;;;;;10.10;100.00;93831.81;5053285;28;20222;-79
2021/08/29 05:54:59;;;;;;;28.73;9.20;;;;;;;9.98;100.00;93821.94;5053215;28;20203;-79
2021/08/29 05:57:25;;;;;;;22.23;9.47;;;;;;;9.95;100.00;93827.56;5053225;28;20211;-80
2021/08/29 05:59:52;;;;;;;21.33;9.87;;;;;;;9.98;100.00;93832.38;5053126;28;20203;-79
2021/08/29 06:02:20;;;;;;;24.80;9.83;;;;;;;9.99;100.00;93834.00;5053091;28;20199;-79
2021/08/29 06:04:46;;;;;;;30.80;12.77;;;;;;;9.93;100.00;93845.19;5052922;28;20196;-80
2021/08/29 06:07:13;;;;;;;26.87;11.80;;;;;;;9.97;100.00;93833.38;5053004;28;20199;-80
2021/08/29 06:09:39;;;;;;;33.13;12.80;;;;;;;10.01;100.00;93839.03;5052978;28;20206;-79
2021/08/29 06:12:06;;;;;;;27.73;11.43;;;;;;;9.96;100.00;93839.59;5052983;28;20206;-80
2021/08/29 06:14:33;;;;;;;24.17;9.83;;;;;;;10.05;100.00;93842.84;5052824;28;20670;-79
2021/08/29 06:16:59;;;;;;;26.37;10.90;;;;;;;10.09;100.00;93838.84;5052777;28;20669;-79
2021/08/29 06:19:27;;;;;;;22.60;10.23;;;;;;;10.17;100.00;93827.41;5052660;28;20218;-78
2021/08/29 06:21:54;;;;;;;25.30;8.57;;;;;;;10.09;100.00;93838.03;5052758;28;20199;-79
2021/08/29 06:24:20;;;;;;;19.40;8.43;;;;;;;10.04;100.00;93836.00;5052462;28;20811;-78
2021/08/29 06:26:47;;;;;;;17.47;7.10;;;;;;;10.06;100.00;93833.19;5052756;28;20202;-78
2021/08/29 06:29:15;;;;;;;17.80;7.70;;;;;;;10.06;100.00;93833.19;5052514;28;20239;-79
2021/08/29 06:31:42;;;;;;;11.53;5.90;;;;;;;10.14;100.00;93826.03;5052594;28;20207;-79
2021/08/29 06:34:08;;;;;;;12.30;6.03;;;;;;;10.20;100.00;93834.84;5052611;28;20203;-79
2021/08/29 06:36:36;;;;;;;8.13;5.00;;;;;;;10.16;100.00;93833.66;5052734;28;20203;-79
2021/08/29 06:39:03;;;;;;;8.53;5.23;;;;;;;10.17;100.00;93827.41;5052888;28;20203;-80
2021/08/29 06:41:29;;;;;;;11.07;4.93;;;;;;;10.23;100.00;93831.88;5052498;28;20680;-79
2021/08/29 06:43:57;;;;;;;10.13;4.93;;;;;;;10.28;100.00;93820.84;5052661;28;20206;-79
2021/08/29 06:46:23;;;;;;;8.57;5.10;;;;;;;10.33;100.00;93818.47;5052352;28;20238;-78
2021/08/29 06:48:50;;;;;;;7.87;4.77;;;;;;;10.32;100.00;93811.63;5052303;28;20700;-78
2021/08/29 06:51:16;;;;;;;9.17;4.67;;;;;;;10.42;100.00;93821.69;5052686;28;20205;-78
2021/08/29 06:53:44;;;;;;;9.33;3.87;;;;;;;10.31;100.00;93817.84;5052556;28;20204;-79
2021/08/29 06:56:13;;;;;;;6.93;3.57;;;;;;;10.40;100.00;93819.28;5052589;28;20294;-78
2021/08/29 06:58:39;;;;;;;6.93;3.50;;;;;;;10.37;100.00;93814.44;5052320;28;20203;-78
2021/08/29 07:01:06;;;;;;;7.87;4.07;;;;;;;10.23;100.00;93816.22;5055631;28;20204;-78
2021/08/29 07:03:33;;;;;;;7.37;4.00;;;;;;;10.40;100.00;93815.88;5056444;28;20210;-78
2021/08/29 07:05:59;;;;;;;6.70;3.53;;;;;;;10.32;100.00;93819.47;5055761;28;20206;-78
2021/08/29 07:08:28;;;;;;;5.77;3.20;;;;;;;10.42;100.00;93817.28;5056228;28;20234;-80
2021/08/29 07:10:56;;;;;;;5.27;3.57;;;;;;;10.50;100.00;93814.47;5056118;28;20769;-79
2021/08/29 07:13:22;;;;;;;7.27;3.87;;;;;;;10.50;100.00;93818.91;5056007;28;20208;-79
2021/08/29 07:15:49;;;;;;;8.73;3.77;;;;;;;10.47;100.00;93820.09;5055982;28;20550;-79
2021/08/29 07:18:15;;;;;;;7.90;4.10;;;;;;;10.41;100.00;93822.69;5056221;28;20203;-79
2021/08/29 07:20:42;;;;;;;10.20;3.70;;;;;;;10.43;100.00;93820.69;5056094;28;20202;-78
2021/08/29 07:23:09;;;;;;;8.30;3.93;;;;;;;10.44;100.00;93825.72;5056078;28;20231;-78
2021/08/29 07:25:35;;;;;;;5.30;3.40;;;;;;;10.58;100.00;93823.13;5055908;28;20230;-80
2021/08/29 07:28:04;;;;;;;4.17;2.60;;;;;;;10.69;100.00;93818.13;5055687;28;20609;-78
2021/08/29 07:30:31;;;;;;;6.30;3.57;;;;;;;10.73;100.00;93814.09;5055905;28;20207;-78
2021/08/29 07:32:57;;;;;;;18.23;9.47;;;;;;;10.54;100.00;93814.88;5055936;28;20207;-77
2021/08/29 07:35:23;;;;;;;4.73;2.30;;;;;;;10.50;100.00;93809.25;5055810;28;20203;-78
2021/08/29 07:37:50;;;;;;;5.60;2.43;;;;;;;10.50;100.00;93818.91;5055688;28;20195;-77
2021/08/29 07:40:19;;;;;;;3.23;2.27;;;;;;;10.42;100.00;93814.66;5055578;28;20555;-80
2021/08/29 07:42:46;;;;;;;3.47;2.10;;;;;;;10.49;100.00;93818.09;5055461;28;20218;-78
2021/08/29 07:45:14;;;;;;;3.00;2.10;;;;;;;10.65;100.00;93822.13;5055648;28;20207;-78
2021/08/29 07:47:41;;;;;;;3.27;1.80;;;;;;;10.72;100.00;93817.72;5055061;28;20237;-78
2021/08/29 07:50:08;;;;;;;2.27;1.73;;;;;;;10.88;100.00;93823.56;5055464;28;20555;-79
2021/08/29 07:52:34;;;;;;;2.63;1.73;;;;;;;10.98;100.00;93823.16;5055330;28;20211;-79
2021/08/29 07:55:01;;;;;;;2.60;2.00;;;;;;;10.82;100.00;93827.75;5055287;28;20313;-78
2021/08/29 07:57:27;;;;;;;2.83;1.80;;;;;;;10.82;100.00;93821.72;5055249;28;20231;-79
2021/08/29 07:59:54;;;;;;;1.70;1.40;;;;;;;10.87;100.00;93821.94;5055382;28;20225;-78
2021/08/29 08:02:22;;;;;;;2.13;1.60;;;;;;;10.97;100.00;93817.09;5055312;28;20214;-78
2021/08/29 08:04:48;;;;;;;2.87;1.60;;;;;;;11.06;100.00;93818.53;5055180;28;20203;-78
2021/08/29 08:07:15;;;;;;;2.30;1.60;;;;;;;11.09;100.00;93814.69;5055165;28;20679;-79
2021/08/29 08:09:41;;;;;;;2.37;1.33;;;;;;;11.18;100.00;93817.91;5054938;28;20228;-79
2021/08/29 08:12:08;;;;;;;2.00;1.53;;;;;;;11.05;100.00;93816.09;5055081;28;20195;-77
2021/08/29 08:14:35;;;;;;;3.37;1.90;;;;;;;11.05;100.00;93816.91;5055117;28;20195;-77
2021/08/29 08:17:01;;;;;;;3.40;2.07;;;;;;;11.28;100.00;93813.06;5055011;28;20211;-78
2021/08/29 08:19:29;;;;;;;2.97;1.63;;;;;;;11.41;100.00;93814.88;5054905;28;20195;-79
2021/08/29 08:21:59;;;;;;;1.17;1.07;;;;;;;11.43;100.00;93818.88;5054994;28;20204;-78
2021/08/29 08:24:25;;;;;;;1.97;1.30;;;;;;;11.36;100.00;93818.09;5054660;28;20200;-78
2021/08/29 08:26:52;;;;;;;2.60;1.70;;;;;;;11.18;100.00;93815.31;5054896;28;20199;-77
2021/08/29 08:29:18;;;;;;;2.30;1.57;;;;;;;11.32;100.00;93818.69;5054758;28;20223;-77
2021/08/29 08:31:45;;;;;;;2.63;1.80;;;;;;;11.40;100.00;93814.03;5054764;28;20207;-77
2021/08/29 08:34:11;;;;;;;5.17;1.33;;;;;;;11.25;100.00;93824.72;5054704;28;20200;-77
2021/08/29 08:36:39;;;;;;;1.43;1.20;;;;;;;11.42;100.00;93824.28;5054510;28;20211;-77
2021/08/29 08:39:06;;;;;;;1.43;1.10;;;;;;;11.52;100.00;93814.22;5054547;28;20202;-78
2021/08/29 08:41:33;;;;;;;1.80;1.33;;;;;;;11.50;100.00;93828.50;5054617;28;20199;-77
2021/08/29 08:44:00;;;;;;;2.43;1.57;;;;;;;11.31;100.00;93825.75;5054506;28;20207;-78
2021/08/29 08:46:26;;;;;;;1.87;1.40;;;;;;;11.42;100.00;93822.50;5054441;28;20228;-78
2021/08/29 08:48:54;;;;;;;2.67;1.30;;;;;;;11.40;100.00;93824.50;5054329;28;20227;-78
2021/08/29 08:51:25;;;;;;;1.37;1.27;;;;;;;11.53;100.00;93828.13;5054232;28;20206;-77
2021/08/29 08:53:54;;;;;;;2.00;1.60;;;;;;;11.46;100.00;93826.31;5054477;28;20203;-77
2021/08/29 08:56:27;;;;;;;2.37;1.60;;;;;;;11.29;100.00;93815.47;5054174;28;20685;-77
2021/08/29 08:58:58;;;;;;;2.07;1.67;;;;;;;11.18;100.00;93825.75;5053651;28;20195;-78
2021/08/29 09:01:24;;;;;;;2.27;1.70;;;;;;;11.24;100.00;93822.31;5034355;28;20204;-78
2021/08/29 09:03:51;;;;;;;2.40;1.80;;;;;;;11.43;100.00;93818.88;5034131;28;20204;-78
2021/08/29 09:06:21;;;;;;;2.60;1.70;;;;;;;11.39;100.00;93817.69;5034050;28;20212;-76
2021/08/29 09:08:48;;;;;;;2.70;2.10;;;;;;;11.42;100.00;93817.28;5033926;28;20224;-78
2021/08/29 09:11:16;;;;;;;2.23;2.03;;;;;;;11.65;100.00;93813.38;5033893;28;20250;-78
2021/08/29 09:14:01;;;;;;;2.37;1.70;;;;;;;11.65;100.00;93821.22;5033953;28;20197;-77
2021/08/29 09:16:31;;;;;;;3.23;1.93;;;;;;;11.85;100.00;93818.53;5033753;28;20283;-80
2021/08/29 09:19:01;;;;;;;2.30;1.70;;;;;;;11.92;100.00;93821.16;5034070;28;20197;-80
2021/08/29 09:21:31;;;;;;;3.60;1.50;;;;;;;12.22;100.00;93810.97;5033981;28;20216;-81
2021/08/29 09:23:59;;;;;;;2.60;1.47;;;;;;;12.23;100.00;93811.78;5033454;28;20299;-78
2021/08/29 09:26:30;;;;;;;1.33;1.23;;;;;;;12.14;100.00;93808.59;5034042;28;20215;-79
2021/08/29 09:28:59;;;;;;;5.13;2.57;;;;;;;12.13;100.00;93818.25;5034481;28;20314;-78
2021/08/29 09:31:43;;;;;;;2.13;1.63;;;;;;;12.12;100.00;93816.66;5035377;28;20559;-78
2021/08/29 09:34:09;;;;;;;1.43;1.20;;;;;;;12.12;100.00;93811.41;5034334;28;20200;-77
2021/08/29 09:36:39;;;;;;;1.33;1.23;;;;;;;11.89;100.00;93816.31;5033560;28;20208;-78
2021/08/29 09:39:11;;;;;;;1.33;1.10;;;;;;;11.95;100.00;93818.16;5033548;28;20677;-77
2021/08/29 09:41:39;;;;;;;2.50;1.60;;;;;;;12.23;100.00;93827.50;5033380;28;20203;-77
2021/08/29 09:44:10;;;;;;;2.00;1.57;;;;;;;12.39;100.00;93821.78;5033600;28;20206;-81
2021/08/29 09:46:51;;;;;;;1.50;1.23;;;;;;;12.42;100.00;93818.69;5033338;28;20232;-80
2021/08/29 09:49:31;;;;;;;1.13;1.07;;;;;;;12.33;100.00;93812.13;5047106;28;20733;-81
2021/08/29 09:52:00;;;;;;;1.10;1.00;;;;;;;12.39;100.00;93813.91;5053138;28;20195;-79
2021/08/29 09:54:31;;;;;;;7.13;3.80;;;;;;;12.50;100.00;93805.38;5053135;28;20226;-78
2021/08/29 09:56:59;;;;;;;5.65;4.45;;;;;;;12.36;100.00;93801.25;5052979;28;20663;-78
2021/08/29 09:59:43;;;;;;;1.70;1.20;;;;;;;12.42;100.00;93805.63;5053138;28;20245;-77
2021/08/29 10:02:18;;;;;;;1.55;1.10;;;;;;;12.57;100.00;93803.53;5052972;28;20199;-80
2021/08/29 10:04:45;;;;;;;1.40;1.23;;;;;;;13.09;100.00;93802.50;5053196;28;20194;-79
2021/08/29 10:07:14;;;;;;;2.45;0.80;;;;;;;13.12;100.00;93795.03;5053062;28;20207;-77
2021/08/29 10:09:41;;;;;;;0.98;0.80;;;;;;;13.10;100.00;93811.97;5053031;28;20227;-76
2021/08/29 10:12:10;;;;;;;2.13;1.90;;;;;;;13.04;100.00;93799.72;5051828;28;20530;-78
2021/08/29 10:14:40;;;;;;;1.13;1.02;;;;;;;13.07;100.00;93799.31;5052497;28;20195;-80
2021/08/29 10:17:08;;;;;;;1.83;0.63;;;;;;;12.94;100.00;93802.84;5053012;28;20554;-79
2021/08/29 10:19:36;;;;;;;1.08;0.90;;;;;;;12.95;100.00;93799.19;5052751;28;20205;-76
2021/08/29 10:22:03;;;;;;;0.98;0.80;;;;;;;13.38;100.00;93803.69;5052480;28;20937;-78
2021/08/29 10:24:32;;;;;;;1.48;0.80;;;;;;;13.67;100.00;93801.38;5052699;28;20558;-80
2021/08/29 10:27:09;;;;;;;0.98;0.80;;;;;;;13.87;100.00;93806.38;5052664;28;20689;-77
2021/08/29 10:29:49;;;;;;;0.73;0.73;;;;;;;14.43;100.00;93805.28;5052456;28;20308;-79
2021/08/29 10:32:22;;;;;;;0.85;0.60;;;;;;;14.94;100.00;93815.50;5052677;28;20664;-78
2021/08/29 10:34:49;;;;;;;0.90;0.60;;;;;;;14.97;100.00;93800.09;5053606;28;20199;-81
2021/08/29 10:37:15;;;;;;;0.55;0.55;;;;;;;14.62;100.00;93805.25;5056104;28;20199;-78
2021/08/29 10:39:42;;;;;;;1.35;0.60;;;;;;;14.54;100.00;93800.31;5055898;28;20663;-78
2021/08/29 10:42:10;;;;;;;0.82;0.55;;;;;;;14.40;100.00;93791.78;5056207;28;20565;-78
2021/08/29 10:44:37;;;;;;;1.05;0.40;;;;;;;13.93;100.00;93805.53;5056030;28;20226;-80
2021/08/29 10:47:06;;;;;;;0.60;0.60;;;;;;;13.97;100.00;93806.69;5055934;28;20231;-81
2021/08/29 10:49:35;;;;;;;0.63;0.63;;;;;;;13.62;100.00;93804.66;5055833;28;20331;-80
2021/08/29 10:52:04;;;;;;;0.57;0.57;;;;;;;13.50;100.00;93817.69;5055759;28;20206;-78
2021/08/29 10:54:31;;;;;;;0.65;0.63;;;;;;;13.59;100.00;93815.59;5055519;28;20199;-77
2021/08/29 10:56:57;;;;;;;1.10;0.70;;;;;;;13.44;100.00;93812.50;5055782;28;20203;-79
2021/08/29 10:59:28;;;;;;;0.88;0.80;;;;;;;13.37;100.00;93811.78;5055857;28;20203;-78
2021/08/29 11:02:11;;;;;;;1.85;0.98;;;;;;;13.46;100.00;93819.16;5055996;28;20199;-78
2021/08/29 11:04:45;;;;;;;2.47;1.10;;;;;;;13.45;100.00;93816.72;5056104;28;20210;-79
2021/08/29 11:07:38;;;;;;;1.10;1.00;;;;;;;13.55;100.00;93803.13;5054447;28;20233;-79
2021/08/29 11:10:09;;;;;;;1.85;1.00;;;;;;;14.14;100.00;93813.94;5056023;28;20227;-78
2021/08/29 11:12:36;;;;;;;4.20;1.35;;;;;;;14.79;100.00;93811.47;5056203;28;20203;-79
2021/08/29 11:15:07;;;;;;;0.80;0.80;;;;;;;14.90;100.00;93801.19;5055906;28;20203;-78
2021/08/29 11:17:36;;;;;;;0.65;0.65;;;;;;;14.82;100.00;93809.41;5056154;28;20203;-77
2021/08/29 11:20:15;;;;;;;1.23;1.13;;;;;;;14.49;100.00;93806.22;5055819;28;20662;-76
2021/08/29 11:22:43;;;;;;;1.13;0.90;;;;;;;14.33;100.00;93798.97;5056035;28;20199;-76
2021/08/29 11:25:21;;;;;;;1.48;1.00;;;;;;;14.43;100.00;93804.47;5055857;28;20203;-78
2021/08/29 11:27:50;;;;;;;0.60;0.60;;;;;;;14.60;100.00;93815.19;5055845;28;20199;-78